createdAt,value
2018-11-02T00:01:09.055Z,90.77
2018-11-02T00:03:41.659Z,90.67
2018-11-02T00:06:16.360Z,90.48
2018-11-02T00:08:48.876Z,90.26
2018-11-02T00:11:22.511Z,90.07
2018-11-02T00:13:55.413Z,90.06
2018-11-02T00:16:28.580Z,90.13
2018-11-02T00:19:03.255Z,90.17
2018-11-02T00:21:36.050Z,90.13
2018-11-02T00:24:09.036Z,90.16
2018-11-02T00:26:43.427Z,90.19
2018-11-02T00:29:16.752Z,90.04
2018-11-02T00:31:49.420Z,89.91
2018-11-02T00:34:22.045Z,89.97
2018-11-02T00:36:55.306Z,90.07
2018-11-02T00:39:28.073Z,90.09
2018-11-02T00:42:00.755Z,90.00
2018-11-02T00:44:35.749Z,90.07
2018-11-02T00:47:08.934Z,90.44
2018-11-02T00:49:41.609Z,90.87
2018-11-02T00:52:15.194Z,91.20
2018-11-02T00:54:49.214Z,91.38
2018-11-02T00:57:21.994Z,91.35
2018-11-02T00:59:58.836Z,91.37
2018-11-02T01:02:32.393Z,91.32
2018-11-02T01:05:06.493Z,91.30
2018-11-02T01:07:39.481Z,91.26
2018-11-02T01:10:12.025Z,91.30
2018-11-02T01:12:46.293Z,91.29
2018-11-02T01:15:19.946Z,91.25
2018-11-02T01:17:53.457Z,91.27
2018-11-02T01:20:26.399Z,91.24
2018-11-02T01:22:59.942Z,91.10
2018-11-02T01:25:32.605Z,91.18
2018-11-02T01:28:06.388Z,91.18
2018-11-02T01:30:39.148Z,91.44
2018-11-02T01:33:11.781Z,91.72
2018-11-02T01:35:45.058Z,91.92
2018-11-02T01:38:18.082Z,92.25
2018-11-02T01:40:50.781Z,92.09
2018-11-02T01:43:23.613Z,91.81
2018-11-02T01:45:56.174Z,91.67
2018-11-02T01:48:31.914Z,92.04
2018-11-02T01:51:11.045Z,91.84
2018-11-02T01:53:44.944Z,88.64
2018-11-02T01:56:18.053Z,87.46
2018-11-02T01:58:50.630Z,87.92
2018-11-02T02:01:23.813Z,88.46
2018-11-02T02:03:59.481Z,88.87
2018-11-02T02:06:32.156Z,88.73
2018-11-02T02:09:09.366Z,88.50
2018-11-02T02:11:42.048Z,88.39
2018-11-02T02:14:15.317Z,88.35
2018-11-02T02:16:48.022Z,87.96
2018-11-02T02:19:20.869Z,87.68
2018-11-02T02:21:54.042Z,87.25
2018-11-02T02:24:26.566Z,87.13
2018-11-02T02:26:59.562Z,87.14
2018-11-02T02:29:33.415Z,87.05
2018-11-02T02:32:06.205Z,87.13
2018-11-02T02:34:39.345Z,87.06
2018-11-02T02:37:12.327Z,86.51
2018-11-02T02:39:45.883Z,86.17
2018-11-02T02:42:19.503Z,85.54
2018-11-02T02:44:52.130Z,85.00
2018-11-02T02:47:25.595Z,84.35
2018-11-02T02:49:59.502Z,83.94
2018-11-02T02:52:32.061Z,83.95
2018-11-02T02:55:06.563Z,83.81
2018-11-02T02:57:39.689Z,83.31
2018-11-02T03:00:13.961Z,82.59
2018-11-02T03:02:46.491Z,82.80
2018-11-02T03:05:19.603Z,83.28
2018-11-02T03:07:52.231Z,83.15
2018-11-02T03:10:24.930Z,83.31
2018-11-02T03:12:57.866Z,82.85
2018-11-02T03:15:30.377Z,83.00
2018-11-02T03:18:03.022Z,82.66
2018-11-02T03:20:35.999Z,82.83
2018-11-02T03:23:08.724Z,82.90
2018-11-02T03:25:41.399Z,82.73
2018-11-02T03:28:14.262Z,82.53
2018-11-02T03:30:46.913Z,82.77
2018-11-02T03:33:19.424Z,82.42
2018-11-02T03:35:52.251Z,82.22
2018-11-02T03:38:25.493Z,81.96
2018-11-02T03:40:59.016Z,82.01
2018-11-02T03:43:35.761Z,82.09
2018-11-02T03:46:08.934Z,82.25
2018-11-02T03:48:42.484Z,82.03
2018-11-02T03:51:15.129Z,82.13
2018-11-02T03:53:48.067Z,82.09
2018-11-02T03:56:20.617Z,82.04
2018-11-02T03:58:53.161Z,82.20
2018-11-02T04:01:26.010Z,82.06
2018-11-02T04:03:59.470Z,82.04
2018-11-02T04:06:32.008Z,82.06
2018-11-02T04:09:06.436Z,82.10
2018-11-02T04:11:40.054Z,82.13
2018-11-02T04:14:13.018Z,82.12
2018-11-02T04:16:45.993Z,82.16
2018-11-02T04:19:18.697Z,82.22
2018-11-02T04:21:51.384Z,82.40
2018-11-02T04:24:24.365Z,82.49
2018-11-02T04:26:56.891Z,82.50
2018-11-02T04:29:29.813Z,82.42
2018-11-02T04:32:02.671Z,82.55
2018-11-02T04:34:35.995Z,82.39
2018-11-02T04:37:08.699Z,82.46
2018-11-02T04:39:41.893Z,82.37
2018-11-02T04:42:14.541Z,82.46
2018-11-02T04:44:47.386Z,82.64
2018-11-02T04:47:20.593Z,82.55
2018-11-02T04:49:53.675Z,82.58
2018-11-02T04:52:26.415Z,82.76
2018-11-02T04:55:01.230Z,82.45
2018-11-02T04:57:34.754Z,82.49
2018-11-02T05:00:10.113Z,82.53
2018-11-02T05:02:45.413Z,82.52
2018-11-02T05:05:18.009Z,82.63
2018-11-02T05:07:51.405Z,82.69
2018-11-02T05:10:23.977Z,82.45
2018-11-02T05:12:58.073Z,82.52
2018-11-02T05:15:31.910Z,82.59
2018-11-02T05:18:04.580Z,82.57
2018-11-02T05:20:37.417Z,82.51
2018-11-02T05:23:11.318Z,82.58
2018-11-02T05:25:43.977Z,82.52
2018-11-02T05:28:16.767Z,82.75
2018-11-02T05:30:50.666Z,82.96
2018-11-02T05:33:23.238Z,82.94
2018-11-02T05:35:56.118Z,82.77
2018-11-02T05:38:29.090Z,82.73
2018-11-02T05:41:03.416Z,82.91
2018-11-02T05:43:36.030Z,82.85
2018-11-02T05:46:09.189Z,82.99
2018-11-02T05:48:42.429Z,82.97
2018-11-02T05:51:15.101Z,82.92
2018-11-02T05:53:48.954Z,83.01
2018-11-02T05:56:21.921Z,82.94
2018-11-02T05:58:54.509Z,82.96
2018-11-02T06:01:27.518Z,82.81
2018-11-02T06:04:01.602Z,82.85
2018-11-02T06:06:35.814Z,82.89
2018-11-02T06:09:09.152Z,82.74
2018-11-02T06:11:41.866Z,82.67
2018-11-02T06:14:17.536Z,82.81
2018-11-02T06:16:55.031Z,82.88
2018-11-02T06:19:29.170Z,82.92
2018-11-02T06:22:03.270Z,82.94
2018-11-02T06:24:40.612Z,83.01
2018-11-02T06:27:15.421Z,83.18
2018-11-02T06:29:51.742Z,83.22
2018-11-02T06:32:25.327Z,83.21
2018-11-02T06:34:57.855Z,83.20
2018-11-02T06:37:32.998Z,83.31
2018-11-02T06:40:07.613Z,83.60
2018-11-02T06:42:40.657Z,83.72
2018-11-02T06:45:15.063Z,83.88
2018-11-02T06:47:48.993Z,83.94
2018-11-02T06:50:27.285Z,83.94
2018-11-02T06:53:01.990Z,84.07
2018-11-02T06:55:38.218Z,84.24
2018-11-02T06:58:12.095Z,84.33
2018-11-02T07:00:46.518Z,84.47
2018-11-02T07:03:19.844Z,84.55
2018-11-02T07:05:54.395Z,84.60
2018-11-02T07:08:28.649Z,84.61
2018-11-02T07:11:05.568Z,84.69
2018-11-02T07:13:39.082Z,84.78
2018-11-02T07:16:16.732Z,84.87
2018-11-02T07:18:50.439Z,85.05
2018-11-02T07:21:23.466Z,84.99
2018-11-02T07:23:58.602Z,85.08
2018-11-02T07:26:32.146Z,85.14
2018-11-02T07:29:05.870Z,85.19
2018-11-02T07:31:38.983Z,85.08
2018-11-02T07:34:12.591Z,85.13
2018-11-02T07:36:46.992Z,85.08
2018-11-02T07:39:20.741Z,85.00
2018-11-02T07:41:54.934Z,85.06
2018-11-02T07:44:31.617Z,85.14
2018-11-02T07:47:04.783Z,85.21
2018-11-02T07:49:41.741Z,85.14
2018-11-02T07:52:15.070Z,84.91
2018-11-02T07:54:48.002Z,84.64
2018-11-02T07:57:22.864Z,84.53
2018-11-02T07:59:56.749Z,84.20
2018-11-02T08:02:29.371Z,83.82
2018-11-02T08:05:03.279Z,83.87
2018-11-02T08:07:36.655Z,83.72
2018-11-02T08:10:09.666Z,83.79
2018-11-02T08:12:43.432Z,82.95
2018-11-02T08:15:19.626Z,83.08
2018-11-02T08:17:56.053Z,83.07
2018-11-02T08:20:29.830Z,83.07
2018-11-02T08:23:03.285Z,82.83
2018-11-02T08:25:37.010Z,82.91
2018-11-02T08:28:14.068Z,82.80
2018-11-02T08:30:50.212Z,82.33
2018-11-02T08:33:23.645Z,81.98
2018-11-02T08:35:58.848Z,82.05
2018-11-02T08:38:35.642Z,82.25
2018-11-02T08:41:12.026Z,82.21
2018-11-02T08:43:47.647Z,81.96
2018-11-02T08:46:22.902Z,81.50
2018-11-02T08:48:56.845Z,80.54
2018-11-02T08:51:32.133Z,80.46
2018-11-02T08:54:04.917Z,80.26
2018-11-02T08:56:37.918Z,80.14
2018-11-02T08:59:10.648Z,80.13
2018-11-02T09:01:46.513Z,79.40
2018-11-02T09:04:22.583Z,78.85
2018-11-02T09:06:55.283Z,78.39
2018-11-02T09:09:28.394Z,79.00
2018-11-02T09:12:06.927Z,78.37
2018-11-02T09:14:41.636Z,78.69
2018-11-02T09:17:16.610Z,78.72
2018-11-02T09:19:53.523Z,77.85
2018-11-02T09:22:30.470Z,78.06
2018-11-02T09:25:04.474Z,77.64
2018-11-02T09:27:38.482Z,76.78
2018-11-02T09:30:19.218Z,77.50
2018-11-02T09:32:54.679Z,77.56
2018-11-02T09:35:29.337Z,76.51
2018-11-02T09:38:03.843Z,76.58
2018-11-02T09:40:38.862Z,75.41
2018-11-02T09:43:13.713Z,75.76
2018-11-02T09:45:49.689Z,75.32
2018-11-02T09:48:25.613Z,74.78
2018-11-02T09:51:02.833Z,75.20
2018-11-02T09:53:39.944Z,75.33
2018-11-02T09:56:21.327Z,75.50
2018-11-02T09:58:55.819Z,75.59
2018-11-02T10:01:32.906Z,75.45
2018-11-02T10:04:09.925Z,75.10
2018-11-02T10:06:45.108Z,74.33
2018-11-02T10:09:20.874Z,73.86
2018-11-02T10:11:57.848Z,73.31
2018-11-02T10:14:32.906Z,71.49
2018-11-02T10:17:06.777Z,72.10
2018-11-02T10:19:40.545Z,72.37
2018-11-02T10:22:16.999Z,72.13
2018-11-02T10:24:50.693Z,71.96
2018-11-02T10:27:28.643Z,71.86
2018-11-02T10:30:06.282Z,71.54
2018-11-02T10:32:57.598Z,71.14
2018-11-02T10:35:37.359Z,71.54
2018-11-02T10:38:10.355Z,70.95
2018-11-02T10:40:53.480Z,70.32
2018-11-02T10:43:41.510Z,69.48
2018-11-02T10:46:19.062Z,69.13
2018-11-02T10:48:53.693Z,67.29
2018-11-02T10:51:29.269Z,67.46
2018-11-02T10:54:04.872Z,67.13
2018-11-02T10:56:42.524Z,64.41
2018-11-02T10:59:20.756Z,63.80
2018-11-02T11:02:01.226Z,63.28
2018-11-02T11:04:44.133Z,63.76
2018-11-02T11:07:21.708Z,64.88
2018-11-02T11:09:56.813Z,64.00
2018-11-02T11:12:33.938Z,65.36
2018-11-02T11:15:08.658Z,64.83
2018-11-02T11:17:45.703Z,65.29
2018-11-02T11:20:20.493Z,65.87
2018-11-02T11:23:00.721Z,66.07
2018-11-02T11:25:36.611Z,65.66
2018-11-02T11:28:09.339Z,65.88
2018-11-02T11:30:49.117Z,65.13
2018-11-02T11:33:25.577Z,64.97
2018-11-02T11:35:58.383Z,64.89
2018-11-02T11:38:38.754Z,65.55
2018-11-02T11:41:14.663Z,65.94
2018-11-02T11:43:51.899Z,65.45
2018-11-02T11:46:27.747Z,64.62
2018-11-02T11:49:03.248Z,63.87
2018-11-02T11:51:40.349Z,62.45
2018-11-02T11:54:13.923Z,62.32
2018-11-02T11:56:50.775Z,61.81
2018-11-02T11:59:41.371Z,62.03
2018-11-02T12:02:18.144Z,62.60
2018-11-02T12:04:54.726Z,62.09
2018-11-02T12:07:32.059Z,60.13
2018-11-02T12:10:07.923Z,60.40
2018-11-02T12:12:41.649Z,60.34
2018-11-02T12:15:28.202Z,58.76
2018-11-02T12:18:08.599Z,58.83
2018-11-02T12:20:51.818Z,59.49
2018-11-02T12:23:27.278Z,59.70
2018-11-02T12:26:01.466Z,59.85
2018-11-02T12:28:37.278Z,59.11
2018-11-02T12:31:12.189Z,58.95
2018-11-02T12:33:57.265Z,58.79
2018-11-02T12:36:32.830Z,58.94
2018-11-02T12:39:09.050Z,58.65
2018-11-02T12:41:43.151Z,58.29
2018-11-02T12:44:18.723Z,57.78
2018-11-02T12:47:08.620Z,56.26
2018-11-02T12:49:48.004Z,56.35
2018-11-02T12:52:22.040Z,55.54
2018-11-02T12:54:58.267Z,56.00
2018-11-02T12:57:37.304Z,56.60
2018-11-02T13:00:18.628Z,57.51
2018-11-02T13:02:53.901Z,58.19
2018-11-02T13:05:29.839Z,58.43
2018-11-02T13:08:04.783Z,58.18
2018-11-02T13:10:44.708Z,58.25
2018-11-02T13:13:21.180Z,58.01
2018-11-02T13:15:55.594Z,58.35
2018-11-02T13:18:29.275Z,58.62
2018-11-02T13:21:06.255Z,58.84
2018-11-02T13:23:47.691Z,59.17
2018-11-02T13:26:22.533Z,59.67
2018-11-02T13:28:56.792Z,60.30
2018-11-02T13:31:36.565Z,60.58
2018-11-02T13:34:11.353Z,60.46
2018-11-02T13:36:44.392Z,60.77
2018-11-02T13:39:27.549Z,60.17
2018-11-02T13:42:01.904Z,60.29
2018-11-02T13:44:35.512Z,59.85
2018-11-02T13:47:13.757Z,60.19
2018-11-02T13:49:49.625Z,60.30
2018-11-02T13:52:23.526Z,60.45
2018-11-02T13:55:08.674Z,60.43
2018-11-02T13:57:58.642Z,58.18
2018-11-02T14:00:35.760Z,57.98
2018-11-02T14:03:10.278Z,58.36
2018-11-02T14:05:44.440Z,57.77
2018-11-02T14:08:22.651Z,55.83
2018-11-02T14:10:55.841Z,55.72
2018-11-02T14:13:31.458Z,55.60
2018-11-02T14:16:05.577Z,53.67
2018-11-02T14:18:45.512Z,54.11
2018-11-02T14:21:23.189Z,54.64
2018-11-02T14:24:05.809Z,54.89
2018-11-02T14:26:43.114Z,55.30
2018-11-02T14:29:23.435Z,54.92
2018-11-02T14:31:59.222Z,54.03
2018-11-02T14:34:34.291Z,52.57
2018-11-02T14:37:10.666Z,52.49
2018-11-02T14:39:45.999Z,53.24
2018-11-02T14:42:29.526Z,54.01
2018-11-02T14:45:08.760Z,52.86
2018-11-02T14:47:50.849Z,53.39
2018-11-02T14:50:26.791Z,54.03
2018-11-02T14:53:01.070Z,54.82
2018-11-02T14:55:37.261Z,55.33
2018-11-02T14:58:15.998Z,56.01
2018-11-02T15:00:52.594Z,56.12
2018-11-02T15:03:34.620Z,56.09
2018-11-02T15:06:09.244Z,56.19
2018-11-02T15:08:45.714Z,56.06
2018-11-02T15:11:44.458Z,56.23
2018-11-02T15:14:19.623Z,56.94
2018-11-02T15:16:55.703Z,56.62
2018-11-02T15:19:29.226Z,57.13
2018-11-02T15:22:04.104Z,56.68
2018-11-02T15:24:43.833Z,56.43
2018-11-02T15:27:18.094Z,56.91
2018-11-02T15:29:52.790Z,57.15
2018-11-02T15:32:31.519Z,57.52
2018-11-02T15:35:08.732Z,58.05
2018-11-02T15:38:01.873Z,58.92
2018-11-02T15:40:36.234Z,59.21
2018-11-02T15:43:17.861Z,59.60
2018-11-02T15:45:54.061Z,60.17
2018-11-02T15:48:45.947Z,60.08
2018-11-02T15:51:19.363Z,60.28
2018-11-02T15:53:59.297Z,60.54
2018-11-02T15:56:36.146Z,60.77
2018-11-02T15:59:28.214Z,60.92
2018-11-02T16:02:07.584Z,62.40
2018-11-02T16:04:46.583Z,63.09
2018-11-02T16:08:22.943Z,64.14
2018-11-02T16:11:10.926Z,64.33
2018-11-02T16:14:19.361Z,64.53
2018-11-02T16:17:09.875Z,64.79
2018-11-02T16:19:49.927Z,66.89
2018-11-02T16:22:29.964Z,66.82
2018-11-02T16:25:07.788Z,67.09
2018-11-02T16:27:45.665Z,67.56
2018-11-02T16:30:21.545Z,67.83
2018-11-02T16:32:54.250Z,68.31
2018-11-02T16:35:30.095Z,68.92
2018-11-02T16:38:09.618Z,69.78
2018-11-02T16:40:44.811Z,70.25
2018-11-02T16:43:19.785Z,69.97
2018-11-02T16:45:57.234Z,70.02
2018-11-02T16:48:45.716Z,70.12
2018-11-02T16:51:21.959Z,70.26
2018-11-02T16:54:04.702Z,70.59
2018-11-02T16:56:41.074Z,71.42
2018-11-02T16:59:23.486Z,71.48
2018-11-02T17:02:03.292Z,71.77
2018-11-02T17:04:38.631Z,71.58
2018-11-02T17:07:14.937Z,71.91
2018-11-02T17:09:51.417Z,72.10
2018-11-02T17:12:29.854Z,72.12
2018-11-02T17:15:09.034Z,72.08
2018-11-02T17:17:49.404Z,72.70
2018-11-02T17:20:24.689Z,73.13
2018-11-02T17:23:02.065Z,75.03
2018-11-02T17:25:36.987Z,75.20
2018-11-02T17:28:28.774Z,76.02
2018-11-02T17:31:06.299Z,75.48
2018-11-02T17:33:54.200Z,75.45
2018-11-02T17:36:32.805Z,76.17
2018-11-02T17:39:28.028Z,76.45
2018-11-02T17:42:09.686Z,77.09
2018-11-02T17:44:46.025Z,78.51
2018-11-02T17:47:23.125Z,79.42
2018-11-02T17:50:02.392Z,79.69
2018-11-02T17:52:42.032Z,80.54
2018-11-02T17:55:19.236Z,80.33
2018-11-02T17:58:09.759Z,80.56
2018-11-02T18:00:45.414Z,80.36
2018-11-02T18:03:22.229Z,80.35
2018-11-02T18:05:58.990Z,80.34
2018-11-02T18:08:34.896Z,80.24
2018-11-02T18:11:10.826Z,80.54
2018-11-02T18:13:53.482Z,81.02
2018-11-02T18:16:36.349Z,81.27
2018-11-02T18:19:14.642Z,81.14
2018-11-02T18:21:47.332Z,82.59
2018-11-02T18:24:24.953Z,82.61
2018-11-02T18:27:01.948Z,82.67
2018-11-02T18:29:53.994Z,82.63
2018-11-02T18:32:29.993Z,82.42
2018-11-02T18:35:12.083Z,82.74
2018-11-02T18:37:49.744Z,82.92
2018-11-02T18:40:25.971Z,83.19
2018-11-02T18:43:01.714Z,83.23
2018-11-02T18:45:43.523Z,83.58
2018-11-02T18:48:22.379Z,83.58
2018-11-02T18:50:57.361Z,83.59
2018-11-02T18:53:39.326Z,83.72
2018-11-02T18:56:15.789Z,83.77
2018-11-02T18:58:53.805Z,83.76
2018-11-02T19:01:30.087Z,84.27
2018-11-02T19:04:09.004Z,84.64
2018-11-02T19:06:47.314Z,84.62
2018-11-02T19:09:31.206Z,84.83
2018-11-02T19:12:06.609Z,85.17
2018-11-02T19:14:42.163Z,85.41
2018-11-02T19:17:17.430Z,85.42
2018-11-02T19:19:52.373Z,85.51
2018-11-02T19:22:28.484Z,85.73
2018-11-02T19:25:07.156Z,85.96
2018-11-02T19:27:44.338Z,86.24
2018-11-02T19:30:19.809Z,86.48
2018-11-02T19:32:59.938Z,86.74
2018-11-02T19:35:34.675Z,87.28
2018-11-02T19:38:12.976Z,87.05
2018-11-02T19:40:47.675Z,86.89
2018-11-02T19:43:30.560Z,87.11
2018-11-02T19:46:19.685Z,87.52
2018-11-02T19:48:56.396Z,87.53
2018-11-02T19:51:53.601Z,87.84
2018-11-02T19:54:29.145Z,87.90
2018-11-02T19:57:11.370Z,87.94
2018-11-02T19:59:49.826Z,87.96
2018-11-02T20:02:26.423Z,88.15
2018-11-02T20:05:05.731Z,88.31
2018-11-02T20:07:54.832Z,88.79
2018-11-02T20:10:31.498Z,89.22
2018-11-02T20:13:07.343Z,89.49
2018-11-02T20:15:43.140Z,89.60
2018-11-02T20:18:17.193Z,89.44
2018-11-02T20:20:59.468Z,89.52
2018-11-02T20:23:34.391Z,89.49
2018-11-02T20:26:10.863Z,89.87
2018-11-02T20:28:52.796Z,90.26
2018-11-02T20:31:31.978Z,90.02
2018-11-02T20:34:10.126Z,90.00
2018-11-02T20:36:51.577Z,90.11
2018-11-02T20:39:26.785Z,90.11
2018-11-02T20:42:05.010Z,89.94
2018-11-02T20:44:44.440Z,89.62
2018-11-02T20:47:19.651Z,89.42
2018-11-02T20:50:07.743Z,89.59
2018-11-02T20:52:45.708Z,89.69
2018-11-02T20:55:21.665Z,89.54
2018-11-02T20:57:55.456Z,89.49
2018-11-02T21:00:32.303Z,89.55
2018-11-02T21:03:12.117Z,89.72
2018-11-02T21:05:53.369Z,89.83
2018-11-02T21:08:33.601Z,90.30
2018-11-02T21:11:11.620Z,90.57
2018-11-02T21:13:52.024Z,90.85
2018-11-02T21:16:31.711Z,91.04
2018-11-02T21:19:09.482Z,91.25
2018-11-02T21:21:57.128Z,91.23
2018-11-02T21:24:37.222Z,91.47
2018-11-02T21:27:20.495Z,91.57
2018-11-02T21:30:00.059Z,91.64
2018-11-02T21:32:41.338Z,91.71
2018-11-02T21:35:25.404Z,91.65
2018-11-02T21:38:05.577Z,91.72
2018-11-02T21:40:41.493Z,91.66
2018-11-02T21:43:16.672Z,91.78
2018-11-02T21:46:30.818Z,91.86
2018-11-02T21:49:29.424Z,91.90
2018-11-02T21:52:08.234Z,91.97
2018-11-02T21:54:50.199Z,92.11
2018-11-02T21:57:27.909Z,92.24
2018-11-02T22:00:04.144Z,92.46
2018-11-02T22:02:41.608Z,92.68
2018-11-02T22:05:18.519Z,92.76
2018-11-02T22:07:52.952Z,93.01
2018-11-02T22:10:26.902Z,92.92
2018-11-02T22:13:05.431Z,92.92
2018-11-02T22:15:40.765Z,92.91
2018-11-02T22:18:14.195Z,93.02
2018-11-02T22:20:52.067Z,93.23
2018-11-02T22:23:29.734Z,93.38
2018-11-02T22:26:03.903Z,93.38
2018-11-02T22:28:47.244Z,93.35
2018-11-02T22:31:23.992Z,93.42
2018-11-02T22:33:58.339Z,93.27
2018-11-02T22:39:32.655Z,92.83
2018-11-02T22:42:08.670Z,92.71
2018-11-02T22:44:44.494Z,92.62
2018-11-02T22:47:21.478Z,92.56
2018-11-02T22:49:54.135Z,92.53
2018-11-02T22:52:27.815Z,92.51
2018-11-02T22:55:11.710Z,92.53
2018-11-02T22:57:51.702Z,92.63
2018-11-02T23:00:27.631Z,92.85
2018-11-02T23:03:02.856Z,92.86
2018-11-02T23:05:37.750Z,93.03
2018-11-02T23:08:11.707Z,93.06
2018-11-02T23:10:48.868Z,93.11
2018-11-02T23:13:27.614Z,93.16
2018-11-02T23:16:04.112Z,93.10
2018-11-02T23:18:38.873Z,93.23
2018-11-02T23:21:11.403Z,93.21
2018-11-02T23:23:47.691Z,93.31
2018-11-02T23:26:25.125Z,93.50
2018-11-02T23:28:59.532Z,93.92
2018-11-02T23:31:53.857Z,93.97
2018-11-02T23:34:38.525Z,93.79
2018-11-02T23:37:24.358Z,93.71
2018-11-02T23:39:59.763Z,93.74
2018-11-02T23:42:34.522Z,93.78
2018-11-02T23:45:12.499Z,93.83
2018-11-02T23:47:51.814Z,93.99
2018-11-02T23:50:26.267Z,94.04
2018-11-02T23:53:00.784Z,94.10
2018-11-02T23:55:33.330Z,94.22
2018-11-02T23:58:06.231Z,94.31
